Bacon Hill, New York
Current Conditions -  °F | °C
As of 1:53 AM on Wednesday 26 Nov 2014 (Local Time) from KGFL Reporting Station
Scattered Clouds Scattered Clouds  
Wind Chill: 36°   Ceiling: Unl
Heat Index: 40°   Visibility: 10mi
Dew Point: 26°   Wind: 6mph
Humidity: 58%   Direction: NA
Pressure: 30.17"   Gusts: NA
Location:  43.0851°N, 73.6134°W
Report Text: KGFL 260653Z AUTO VRB05KT 10SM SCT043 04/M03 A3017 RMK AO2 SLP221 T00441033
Loading
Personal Weather Stations






























Interactive Weather Map New forecast layout! Learn more

10-Day Weather Forecast

Advertisements
Track Severe Weather on mobile